Time;durP1;ratioP1;P1;durP2;ratioP2;P2;SDS_P1;SDS_P2;PMS_P1;PMS_P2;Temp;Humidity;BMP_temperature;BMP_pressure;BME280_temperature;BME280_humidity;BME280_pressure;Samples;Min_cycle;Max_cycle;Signal;HPM_P1;HPM_P2
2021/01/09 00:00:10;;;;;;;9.32;4.75;;;1.10;94.10;;;;;;5025029;28;20490;-73
2021/01/09 00:02:36;;;;;;;9.27;4.45;;;1.10;94.10;;;;;;5017412;28;20049;-73
2021/01/09 00:05:02;;;;;;;9.20;4.00;;;1.10;94.10;;;;;;5018953;28;20507;-73
2021/01/09 00:07:48;;;;;;;;;;;1.20;94.10;;;;;;5024446;28;20051;-73
2021/01/09 00:10:13;;;;;;;9.10;4.27;;;1.10;94.00;;;;;;5022665;28;20019;-72
2021/01/09 00:12:39;;;;;;;6.55;4.10;;;1.10;94.00;;;;;;5024474;28;20060;-73
2021/01/09 00:15:09;;;;;;;5.07;4.10;;;1.10;94.00;;;;;;5023232;28;20037;-72
2021/01/09 00:17:35;;;;;;;7.70;4.70;;;1.10;94.00;;;;;;5017889;28;20515;-72
2021/01/09 00:20:05;;;;;;;6.70;4.05;;;1.10;94.20;;;;;;5022151;28;20080;-73
2021/01/09 00:22:33;;;;;;;6.32;4.15;;;1.00;94.10;;;;;;5019623;28;20441;-73
2021/01/09 00:24:58;;;;;;;5.40;3.33;;;1.00;94.10;;;;;;5017709;28;20422;-73
2021/01/09 00:27:24;;;;;;;6.80;4.13;;;1.10;94.30;;;;;;5022039;28;20053;-73
2021/01/09 00:29:49;;;;;;;5.38;4.03;;;1.00;94.30;;;;;;5021220;28;20125;-72
2021/01/09 00:32:15;;;;;;;7.63;4.53;;;1.00;94.30;;;;;;5014695;28;20034;-73
2021/01/09 00:34:41;;;;;;;4.82;3.70;;;1.00;94.30;;;;;;5019641;28;20484;-72
2021/01/09 00:37:06;;;;;;;7.03;4.10;;;1.10;94.40;;;;;;5023515;28;20033;-73
2021/01/09 00:39:32;;;;;;;5.57;3.90;;;1.10;94.30;;;;;;5023481;28;20034;-72
2021/01/09 00:41:59;;;;;;;5.97;4.18;;;1.20;94.30;;;;;;5017923;28;20057;-72
2021/01/09 00:44:27;;;;;;;6.03;4.10;;;1.10;94.20;;;;;;5018711;28;20049;-72
2021/01/09 00:46:57;;;;;;;6.40;4.47;;;1.10;94.10;;;;;;5017368;28;20638;-72
2021/01/09 00:49:23;;;;;;;6.13;4.40;;;1.20;94.10;;;;;;5018693;28;20048;-72
2021/01/09 00:51:48;;;;;;;6.28;3.15;;;1.10;94.00;;;;;;5019309;28;20492;-73
2021/01/09 00:54:15;;;;;;;8.40;4.32;;;1.10;94.10;;;;;;5017583;28;20090;-72
2021/01/09 00:56:41;;;;;;;7.72;4.10;;;1.10;94.10;;;;;;5019729;28;20034;-73
2021/01/09 00:59:06;;;;;;;6.78;3.70;;;1.10;94.10;;;;;;5017174;28;20131;-73
2021/01/09 01:01:32;;;;;;;5.35;3.65;;;1.10;94.30;;;;;;5022100;28;20403;-72
2021/01/09 01:03:59;;;;;;;10.88;4.72;;;1.10;94.30;;;;;;5026865;28;20037;-73
2021/01/09 01:06:25;;;;;;;7.25;3.85;;;1.20;94.40;;;;;;5024402;28;20136;-72
2021/01/09 01:08:52;;;;;;;5.85;3.95;;;1.20;94.50;;;;;;5026713;28;20037;-72
2021/01/09 01:11:28;;;;;;;8.30;4.68;;;1.20;94.60;;;;;;5021466;28;20095;-72
2021/01/09 01:13:55;;;;;;;7.32;4.25;;;1.30;94.70;;;;;;5018529;28;20040;-72
2021/01/09 01:16:21;;;;;;;7.32;4.38;;;1.30;94.70;;;;;;5022214;28;20391;-72
2021/01/09 01:18:47;;;;;;;6.28;3.85;;;1.30;94.70;;;;;;5027428;28;20120;-72
2021/01/09 01:21:13;;;;;;;6.22;4.38;;;1.30;94.70;;;;;;5020871;28;20467;-73
2021/01/09 01:23:39;;;;;;;6.20;3.63;;;1.40;94.80;;;;;;5021157;28;20522;-73
2021/01/09 01:26:10;;;;;;;5.38;4.43;;;1.50;94.90;;;;;;5018403;28;20442;-73
2021/01/09 01:28:36;;;;;;;7.25;4.13;;;1.40;94.90;;;;;;5021020;28;20120;-72
2021/01/09 01:31:02;;;;;;;8.40;4.03;;;1.50;94.90;;;;;;5019327;28;20033;-73
2021/01/09 01:33:28;;;;;;;8.27;4.10;;;1.50;94.90;;;;;;5021636;28;20518;-72
2021/01/09 01:35:54;;;;;;;6.50;4.03;;;1.40;94.80;;;;;;5022340;28;20061;-73
2021/01/09 01:38:19;;;;;;;5.78;3.13;;;1.50;94.80;;;;;;5015185;28;20091;-73
2021/01/09 01:40:45;;;;;;;4.60;3.38;;;1.40;94.70;;;;;;5017790;28;21222;-73
2021/01/09 01:43:12;;;;;;;5.65;3.35;;;1.40;94.70;;;;;;5022610;28;20106;-73
2021/01/09 01:45:39;;;;;;;6.90;2.97;;;1.40;94.70;;;;;;5020465;28;20117;-73
2021/01/09 01:48:11;;;;;;;6.63;3.72;;;1.30;94.60;;;;;;5020725;28;20053;-73
2021/01/09 01:50:38;;;;;;;4.93;3.25;;;1.30;94.60;;;;;;5020769;28;20042;-73
2021/01/09 01:53:05;;;;;;;4.95;3.50;;;1.30;94.60;;;;;;5018726;28;20038;-73
2021/01/09 01:55:31;;;;;;;4.55;3.58;;;1.30;94.70;;;;;;5014082;28;20183;-73
2021/01/09 01:57:57;;;;;;;6.05;3.08;;;1.20;94.60;;;;;;5018251;28;20041;-73
2021/01/09 02:00:27;;;;;;;3.72;3.10;;;1.20;94.90;;;;;;5021695;28;20042;-73
2021/01/09 02:02:54;;;;;;;5.10;3.58;;;1.20;94.60;;;;;;5020522;28;20053;-73
2021/01/09 02:05:33;;;;;;;4.68;3.00;;;1.20;94.60;;;;;;5020238;28;20048;-73
2021/01/09 02:08:02;;;;;;;5.97;3.53;;;1.20;94.60;;;;;;5016934;28;20053;-73
2021/01/09 02:10:28;;;;;;;6.78;3.45;;;1.10;94.60;;;;;;5020488;28;20059;-73
2021/01/09 02:13:14;;;;;;;9.30;4.20;;;1.10;94.60;;;;;;5020372;28;20268;-73
2021/01/09 02:15:40;;;;;;;11.20;3.65;;;1.00;94.60;;;;;;5020837;28;20063;-73
2021/01/09 02:18:07;;;;;;;4.95;3.33;;;1.00;94.50;;;;;;5023286;28;20132;-73
2021/01/09 02:20:34;;;;;;;5.88;3.58;;;0.90;94.50;;;;;;5024358;28;20046;-73
2021/01/09 02:23:02;;;;;;;3.80;3.35;;;1.00;94.60;;;;;;5012428;28;20041;-73
2021/01/09 02:25:28;;;;;;;4.93;3.15;;;0.90;94.50;;;;;;5016008;28;20167;-73
2021/01/09 02:27:54;;;;;;;8.82;4.38;;;0.90;94.50;;;;;;5019394;28;20037;-72
2021/01/09 02:30:27;;;;;;;6.50;3.42;;;0.80;94.50;;;;;;5019179;28;20392;-73
2021/01/09 02:33:07;;;;;;;5.22;3.25;;;0.70;94.30;;;;;;5017565;28;20083;-72
2021/01/09 02:35:35;;;;;;;6.45;3.65;;;0.70;94.40;;;;;;5013987;28;20037;-73
2021/01/09 02:38:01;;;;;;;7.35;4.05;;;0.70;94.50;;;;;;5018788;28;20792;-73
2021/01/09 02:40:26;;;;;;;7.65;3.95;;;0.70;94.30;;;;;;5011897;28;20157;-73
2021/01/09 02:42:52;;;;;;;5.22;4.18;;;0.70;94.40;;;;;;5018225;28;21982;-72
2021/01/09 02:45:18;;;;;;;7.15;4.18;;;0.70;94.40;;;;;;5015189;28;20045;-73
2021/01/09 02:47:45;;;;;;;8.07;4.55;;;0.70;94.20;;;;;;5017161;28;20057;-73
2021/01/09 02:50:11;;;;;;;9.48;4.53;;;0.70;94.30;;;;;;5025521;28;20038;-72
2021/01/09 02:52:40;;;;;;;10.68;4.63;;;0.60;94.30;;;;;;5019303;28;20034;-73
2021/01/09 02:55:07;;;;;;;5.07;3.70;;;0.50;94.40;;;;;;5016417;28;20048;-73
2021/01/09 02:57:34;;;;;;;6.88;4.80;;;0.50;94.60;;;;;;5020372;28;20045;-72
2021/01/09 02:59:59;;;;;;;9.30;5.30;;;0.50;94.60;;;;;;5023581;28;20037;-72
2021/01/09 03:02:25;;;;;;;7.15;4.32;;;0.50;94.70;;;;;;5020597;28;20041;-72
2021/01/09 03:04:51;;;;;;;5.20;3.70;;;0.50;94.70;;;;;;5020231;28;20112;-72
2021/01/09 03:07:17;;;;;;;6.25;4.35;;;0.50;94.50;;;;;;5023450;28;20135;-73
2021/01/09 03:09:42;;;;;;;9.70;4.30;;;0.60;94.60;;;;;;5021578;28;20044;-72
2021/01/09 03:12:08;;;;;;;7.03;4.63;;;0.60;94.70;;;;;;5023906;28;20053;-73
2021/01/09 03:14:34;;;;;;;4.82;3.88;;;0.60;94.70;;;;;;5023869;28;20400;-72
2021/01/09 03:16:59;;;;;;;5.20;3.67;;;0.50;94.50;;;;;;5024852;28;20192;-72
2021/01/09 03:19:25;;;;;;;6.78;4.28;;;0.60;94.50;;;;;;5024904;28;20038;-72
2021/01/09 03:21:51;;;;;;;6.65;3.38;;;0.50;94.40;;;;;;5022939;28;20034;-72
2021/01/09 03:24:17;;;;;;;7.57;4.07;;;0.50;94.30;;;;;;5019533;28;20542;-72
2021/01/09 03:26:42;;;;;;;4.13;3.58;;;0.50;94.50;;;;;;5021541;28;20034;-72
2021/01/09 03:29:08;;;;;;;6.18;4.07;;;0.50;94.40;;;;;;5018826;28;20068;-72
2021/01/09 03:31:34;;;;;;;8.07;3.67;;;0.50;94.50;;;;;;5020209;28;20040;-73
2021/01/09 03:33:59;;;;;;;5.63;4.20;;;0.50;94.60;;;;;;5020980;28;20041;-73
2021/01/09 03:36:26;;;;;;;5.00;3.60;;;0.50;94.50;;;;;;5025721;28;20045;-72
2021/01/09 03:38:51;;;;;;;4.72;3.75;;;0.40;94.50;;;;;;5021733;28;20038;-72
2021/01/09 03:41:17;;;;;;;8.52;4.10;;;0.50;94.50;;;;;;5024302;28;20042;-73
2021/01/09 03:43:43;;;;;;;4.82;2.92;;;0.40;94.50;;;;;;5019373;28;20065;-72
2021/01/09 03:46:09;;;;;;;4.78;3.05;;;0.40;94.40;;;;;;5022797;28;21209;-72
2021/01/09 03:48:35;;;;;;;5.35;3.47;;;0.40;94.30;;;;;;5020369;28;20041;-72
2021/01/09 03:51:01;;;;;;;7.82;3.80;;;0.30;94.30;;;;;;5018849;28;20389;-72
2021/01/09 03:53:26;;;;;;;5.03;3.85;;;0.30;94.50;;;;;;5023580;28;20080;-73
2021/01/09 03:55:52;;;;;;;6.75;4.05;;;0.40;94.50;;;;;;5022169;28;20065;-72
2021/01/09 03:58:17;;;;;;;5.72;3.63;;;0.30;94.40;;;;;;5017175;28;20467;-72
2021/01/09 04:00:43;;;;;;;10.93;4.35;;;0.30;94.50;;;;;;5021093;28;20048;-72
2021/01/09 04:03:09;;;;;;;6.93;4.32;;;0.30;94.70;;;;;;5016875;28;20037;-72
2021/01/09 04:05:34;;;;;;;6.50;3.95;;;0.40;94.80;;;;;;5024521;28;20045;-72
2021/01/09 04:08:00;;;;;;;7.75;4.43;;;0.40;94.80;;;;;;5019609;28;20037;-72
2021/01/09 04:10:26;;;;;;;8.68;4.55;;;0.40;94.80;;;;;;5025359;28;20037;-72
2021/01/09 04:12:51;;;;;;;6.55;3.80;;;0.40;94.90;;;;;;5023594;28;20073;-72
2021/01/09 04:15:17;;;;;;;7.30;4.50;;;0.40;94.90;;;;;;5023324;28;20069;-72
2021/01/09 04:17:43;;;;;;;13.52;5.07;;;0.40;95.00;;;;;;5023913;28;20038;-73
2021/01/09 04:20:09;;;;;;;6.75;4.10;;;0.50;95.10;;;;;;5016733;28;20569;-72
2021/01/09 04:22:35;;;;;;;4.45;3.78;;;0.50;95.10;;;;;;5018869;28;20029;-72
2021/01/09 04:25:01;;;;;;;7.63;4.25;;;0.60;95.10;;;;;;5022056;28;20073;-72
2021/01/09 04:27:27;;;;;;;7.35;4.50;;;0.60;95.00;;;;;;5021146;28;20069;-72
2021/01/09 04:29:52;;;;;;;7.32;4.95;;;0.60;95.00;;;;;;5023924;28;20037;-72
2021/01/09 04:32:18;;;;;;;7.35;4.18;;;0.60;94.90;;;;;;5022886;28;20892;-72
2021/01/09 04:34:46;;;;;;;8.85;4.10;;;0.60;94.90;;;;;;5021611;28;20098;-72
2021/01/09 04:37:12;;;;;;;8.48;4.15;;;0.60;94.90;;;;;;5025598;28;20125;-72
2021/01/09 04:39:37;;;;;;;7.30;4.30;;;0.60;94.90;;;;;;5017291;28;20411;-72
2021/01/09 04:42:03;;;;;;;7.28;4.20;;;0.60;94.80;;;;;;5019469;28;20043;-72
2021/01/09 04:44:29;;;;;;;10.15;4.60;;;0.60;94.80;;;;;;5019481;28;20034;-72
2021/01/09 04:46:56;;;;;;;7.28;4.03;;;0.60;94.80;;;;;;5022374;28;20053;-72
2021/01/09 04:49:25;;;;;;;5.15;4.03;;;0.80;94.90;;;;;;5022316;28;20046;-72
2021/01/09 04:51:52;;;;;;;9.77;4.63;;;0.70;94.80;;;;;;5020842;28;20392;-72
2021/01/09 04:54:19;;;;;;;5.82;3.75;;;0.60;94.80;;;;;;5021190;28;20112;-72
2021/01/09 04:56:48;;;;;;;6.28;4.10;;;0.60;94.80;;;;;;5020624;28;20499;-73
2021/01/09 04:59:15;;;;;;;6.18;4.30;;;0.60;94.80;;;;;;5019767;28;20318;-72
2021/01/09 05:01:42;;;;;;;6.40;3.50;;;0.70;94.80;;;;;;5021196;28;20104;-72
2021/01/09 05:04:08;;;;;;;5.40;3.45;;;0.70;94.80;;;;;;5023198;28;20200;-72
2021/01/09 05:06:34;;;;;;;5.70;3.47;;;0.70;94.70;;;;;;5021390;28;20144;-72
2021/01/09 05:09:00;;;;;;;10.90;4.07;;;0.70;94.70;;;;;;5020506;28;20049;-72
2021/01/09 05:11:26;;;;;;;7.07;3.13;;;0.70;94.60;;;;;;5022127;28;20034;-72
2021/01/09 05:13:51;;;;;;;4.45;3.08;;;0.70;94.60;;;;;;5020686;28;20204;-72
2021/01/09 05:16:17;;;;;;;7.03;4.22;;;0.70;94.60;;;;;;5023423;28;20049;-72
2021/01/09 05:18:43;;;;;;;6.60;3.58;;;0.80;94.60;;;;;;5020905;28;20069;-72
2021/01/09 05:21:13;;;;;;;7.20;4.10;;;0.70;94.60;;;;;;5022496;28;20570;-72
2021/01/09 05:23:58;;;;;;;6.72;3.22;;;0.70;94.60;;;;;;5019070;28;20091;-72
2021/01/09 05:26:24;;;;;;;5.93;3.60;;;0.70;94.70;;;;;;5020748;28;20053;-72
2021/01/09 05:28:50;;;;;;;4.80;3.33;;;0.90;94.80;;;;;;5022074;28;20041;-72
2021/01/09 05:31:17;;;;;;;6.68;3.60;;;0.80;94.90;;;;;;5020951;28;20045;-72
2021/01/09 05:33:43;;;;;;;6.00;3.05;;;0.90;95.00;;;;;;5017945;28;20083;-72
2021/01/09 05:36:10;;;;;;;6.32;3.63;;;0.90;95.00;;;;;;5018959;28;20037;-72
2021/01/09 05:38:43;;;;;;;8.90;4.15;;;0.90;95.00;;;;;;5018669;28;20038;-72
2021/01/09 05:41:18;;;;;;;6.78;3.90;;;0.90;95.00;;;;;;5022016;28;20558;-72
2021/01/09 05:44:01;;;;;;;8.65;3.97;;;0.90;95.10;;;;;;5019597;28;20120;-72
2021/01/09 05:46:37;;;;;;;5.55;3.28;;;1.00;95.20;;;;;;5020816;28;20510;-72
2021/01/09 05:49:05;;;;;;;8.20;3.08;;;1.00;95.20;;;;;;5027387;28;20116;-72
2021/01/09 05:51:32;;;;;;;7.18;3.47;;;1.00;95.20;;;;;;5018631;28;20484;-72
2021/01/09 05:53:58;;;;;;;5.30;3.85;;;1.10;95.20;;;;;;5018784;28;20488;-72
2021/01/09 05:56:24;;;;;;;8.20;3.42;;;1.00;95.20;;;;;;5017428;28;20128;-72
2021/01/09 05:58:54;;;;;;;6.70;3.63;;;1.10;95.30;;;;;;5016622;28;20377;-72
2021/01/09 06:01:25;;;;;;;6.13;3.08;;;1.10;95.30;;;;;;5014368;28;20799;-72
2021/01/09 06:04:22;;;;;;;9.70;2.53;;;1.10;95.40;;;;;;5022777;28;20060;-72
2021/01/09 06:07:07;;;;;;;6.32;2.53;;;1.20;95.40;;;;;;5016183;28;20404;-72
2021/01/09 06:09:35;;;;;;;6.82;2.75;;;1.10;95.40;;;;;;5016116;28;20037;-72
2021/01/09 06:12:07;;;;;;;6.40;2.97;;;1.20;95.40;;;;;;5023269;28;20048;-72
2021/01/09 06:14:36;;;;;;;7.50;2.55;;;1.30;95.40;;;;;;5020320;28;20033;-72
2021/01/09 06:17:04;;;;;;;8.13;2.50;;;1.20;95.40;;;;;;5020653;28;20045;-72
2021/01/09 06:19:31;;;;;;;5.35;2.50;;;1.30;95.50;;;;;;5018878;28;20377;-72
2021/01/09 06:21:59;;;;;;;7.30;2.10;;;1.30;95.50;;;;;;5023296;28;20041;-72
2021/01/09 06:24:24;;;;;;;8.40;2.45;;;1.30;95.50;;;;;;5016687;28;20484;-72
2021/01/09 06:26:50;;;;;;;4.90;1.80;;;1.30;95.40;;;;;;5017189;28;20080;-72
2021/01/09 06:29:25;;;;;;;7.90;1.98;;;1.40;95.40;;;;;;5018248;28;20044;-72
2021/01/09 06:31:59;;;;;;;7.68;2.08;;;1.30;95.40;;;;;;5020007;28;20046;-72
2021/01/09 06:34:29;;;;;;;4.88;1.45;;;1.40;95.40;;;;;;5021816;28;20034;-72
2021/01/09 06:37:03;;;;;;;9.15;1.50;;;1.40;95.40;;;;;;5021457;28;20068;-72
2021/01/09 06:39:39;;;;;;;7.43;1.27;;;1.40;95.30;;;;;;5023721;28;20037;-72
2021/01/09 06:42:08;;;;;;;7.32;1.38;;;1.40;95.30;;;;;;5019809;28;20042;-72
2021/01/09 06:44:34;;;;;;;6.30;1.50;;;1.50;95.30;;;;;;5022869;28;20539;-72
2021/01/09 06:47:00;;;;;;;3.53;1.10;;;1.50;95.30;;;;;;5022372;28;20134;-72
2021/01/09 06:49:26;;;;;;;4.93;1.40;;;1.50;95.20;;;;;;5023458;28;20134;-72
2021/01/09 06:51:54;;;;;;;4.72;1.33;;;1.60;95.10;;;;;;5028776;28;20033;-72
2021/01/09 06:54:38;;;;;;;3.83;1.25;;;1.60;95.10;;;;;;5022482;28;20382;-72
2021/01/09 06:57:15;;;;;;;4.65;1.20;;;1.60;95.10;;;;;;5026590;28;20044;-72
2021/01/09 06:59:43;;;;;;;5.10;1.80;;;1.60;95.00;;;;;;5020883;28;20073;-72
2021/01/09 07:02:12;;;;;;;5.15;1.45;;;1.70;94.90;;;;;;5020370;28;20511;-72
2021/01/09 07:04:57;;;;;;;7.47;1.35;;;1.60;95.00;;;;;;5024404;28;20496;-72
2021/01/09 07:07:33;;;;;;;4.70;1.70;;;1.60;95.00;;;;;;5024955;28;20041;-72
2021/01/09 07:10:27;;;;;;;5.35;1.38;;;1.50;95.00;;;;;;5021527;28;20116;-72
2021/01/09 07:12:55;;;;;;;3.50;1.60;;;1.50;95.10;;;;;;5017221;28;20049;-72
2021/01/09 07:15:23;;;;;;;3.42;1.25;;;1.50;95.20;;;;;;5027090;28;20483;-72
2021/01/09 07:17:59;;;;;;;6.40;1.40;;;1.50;95.30;;;;;;5027243;28;20033;-72
2021/01/09 07:20:49;;;;;;;6.55;1.77;;;1.50;95.20;;;;;;5021825;28;20025;-73
2021/01/09 07:23:16;;;;;;;3.88;1.27;;;1.50;95.20;;;;;;5016924;28;20506;-73
2021/01/09 07:25:44;;;;;;;6.05;1.80;;;1.60;95.10;;;;;;5019150;28;20052;-73
2021/01/09 07:28:16;;;;;;;5.25;1.48;;;1.50;95.00;;;;;;5019396;28;20040;-72
2021/01/09 07:30:42;;;;;;;5.05;1.77;;;1.50;94.90;;;;;;5016997;28;20064;-72
2021/01/09 07:33:15;;;;;;;5.90;1.42;;;1.50;94.90;;;;;;5015700;28;20125;-73
2021/01/09 07:35:43;;;;;;;7.60;1.85;;;1.40;94.80;;;;;;5017194;28;20037;-73
2021/01/09 07:38:09;;;;;;;7.35;2.00;;;1.40;94.80;;;;;;5021419;28;20038;-73
2021/01/09 07:40:40;;;;;;;20.52;3.53;;;1.40;94.80;;;;;;5023338;28;20034;-73
2021/01/09 07:43:35;;;;;;;24.77;3.10;;;1.40;94.80;;;;;;5018214;28;20132;-73
2021/01/09 07:46:02;;;;;;;31.63;3.17;;;1.30;94.80;;;;;;5019308;28;20053;-73
2021/01/09 07:48:32;;;;;;;6.82;1.55;;;1.30;94.80;;;;;;5019161;28;20123;-73
2021/01/09 07:50:58;;;;;;;5.55;1.48;;;1.40;94.80;;;;;;5022873;28;20475;-73
2021/01/09 07:53:27;;;;;;;3.35;1.50;;;1.30;94.80;;;;;;5021217;28;20044;-72
2021/01/09 07:55:54;;;;;;;4.15;1.17;;;1.20;94.80;;;;;;5020236;28;20320;-73
2021/01/09 07:58:45;;;;;;;4.35;1.80;;;1.20;94.80;;;;;;5024284;28;20120;-73
2021/01/09 08:01:11;;;;;;;7.63;1.60;;;1.20;94.80;;;;;;5025765;28;20091;-73
2021/01/09 08:03:39;;;;;;;5.55;1.30;;;1.20;94.90;;;;;;5021908;28;20408;-73
2021/01/09 08:06:05;;;;;;;23.63;2.25;;;1.10;94.90;;;;;;5025623;28;20115;-73
2021/01/09 08:08:32;;;;;;;5.68;1.67;;;1.10;94.60;;;;;;5026844;28;20497;-73
2021/01/09 08:11:02;;;;;;;13.05;1.60;;;1.20;94.80;;;;;;5024061;28;20037;-73
2021/01/09 08:13:28;;;;;;;3.97;1.08;;;1.10;94.80;;;;;;5024664;28;20040;-72
2021/01/09 08:15:54;;;;;;;4.85;1.27;;;1.10;94.80;;;;;;5023684;28;20046;-72
2021/01/09 08:18:20;;;;;;;5.88;1.50;;;1.00;94.90;;;;;;5023343;28;20115;-73
2021/01/09 08:20:49;;;;;;;3.55;1.10;;;1.10;95.00;;;;;;5027748;28;20125;-73
2021/01/09 08:23:14;;;;;;;3.28;1.35;;;1.10;95.00;;;;;;5024773;28;20037;-72
2021/01/09 08:25:42;;;;;;;9.43;1.60;;;1.20;95.00;;;;;;5020995;28;20060;-73
2021/01/09 08:28:08;;;;;;;5.82;1.50;;;1.20;94.90;;;;;;5021231;28;20388;-72
2021/01/09 08:30:36;;;;;;;3.78;1.27;;;1.10;94.90;;;;;;5022463;28;20085;-72
2021/01/09 08:33:03;;;;;;;7.00;1.67;;;1.20;94.90;;;;;;5023739;28;20083;-73
2021/01/09 08:35:29;;;;;;;5.95;2.08;;;1.30;95.00;;;;;;5018819;28;20044;-74
2021/01/09 08:37:56;;;;;;;4.85;1.33;;;1.20;94.90;;;;;;5018598;28;20048;-73
2021/01/09 08:40:23;;;;;;;4.00;1.30;;;1.30;95.20;;;;;;5024775;28;20480;-73
2021/01/09 08:43:10;;;;;;;6.00;1.15;;;1.30;95.00;;;;;;5022557;28;20483;-71
2021/01/09 08:45:53;;;;;;;4.78;1.58;;;1.30;94.90;;;;;;5019480;28;20061;-72
2021/01/09 08:48:21;;;;;;;3.85;1.55;;;1.40;94.90;;;;;;5021525;28;20041;-72
2021/01/09 08:51:10;;;;;;;5.32;1.63;;;1.40;94.80;;;;;;5020529;28;20044;-72
2021/01/09 08:53:54;;;;;;;9.13;1.65;;;1.50;94.90;;;;;;5024954;28;20046;-72
2021/01/09 08:56:21;;;;;;;7.65;1.63;;;1.60;95.00;;;;;;5020351;28;20120;-72
2021/01/09 08:58:48;;;;;;;7.43;2.30;;;1.60;95.10;;;;;;5019518;28;20041;-72
2021/01/09 09:01:17;;;;;;;4.68;1.10;;;1.70;95.10;;;;;;5024742;28;20096;-72
2021/01/09 09:03:55;;;;;;;5.07;0.90;;;1.70;95.00;;;;;;5025883;28;20430;-72
2021/01/09 09:06:22;;;;;;;4.10;1.17;;;1.70;94.90;;;;;;5015034;28;20044;-72
2021/01/09 09:08:48;;;;;;;7.93;1.33;;;1.80;95.00;;;;;;5016485;28;20026;-72
2021/01/09 09:11:15;;;;;;;6.82;1.75;;;1.80;95.00;;;;;;5021879;28;20037;-72
2021/01/09 09:13:41;;;;;;;2.75;0.75;;;1.80;95.00;;;;;;5023131;28;20044;-72
2021/01/09 09:16:19;;;;;;;7.47;0.90;;;1.80;95.20;;;;;;5020033;28;20041;-73
2021/01/09 09:18:46;;;;;;;14.40;1.20;;;1.80;95.30;;;;;;5020224;28;20048;-72
2021/01/09 09:21:11;;;;;;;5.43;0.90;;;2.00;95.30;;;;;;5020964;28;20065;-73
2021/01/09 09:23:37;;;;;;;4.78;0.60;;;1.90;95.30;;;;;;5012395;28;20971;-73
2021/01/09 09:26:13;;;;;;;7.82;1.00;;;2.00;95.30;;;;;;5017362;28;20179;-73
2021/01/09 09:28:59;;;;;;;4.93;1.25;;;2.10;95.30;;;;;;5020850;28;20030;-72
2021/01/09 09:31:33;;;;;;;5.65;0.90;;;2.10;95.30;;;;;;5024432;28;20080;-72
2021/01/09 09:34:09;;;;;;;15.63;1.60;;;2.20;95.20;;;;;;5019445;28;20117;-72
2021/01/09 09:36:58;;;;;;;5.57;0.85;;;2.20;95.20;;;;;;5020181;28;20038;-72
2021/01/09 09:39:25;;;;;;;5.65;0.75;;;2.30;95.10;;;;;;5020459;28;20045;-72
2021/01/09 09:41:53;;;;;;;3.35;0.85;;;2.30;95.10;;;;;;5019212;28;20400;-72
2021/01/09 09:44:21;;;;;;;4.75;0.90;;;2.30;95.00;;;;;;5017757;28;20095;-72
2021/01/09 09:46:49;;;;;;;1.95;0.60;;;2.40;94.90;;;;;;5023835;28;20041;-72
2021/01/09 09:49:16;;;;;;;2.60;0.50;;;2.40;94.70;;;;;;5018169;28;20050;-72
2021/01/09 09:51:42;;;;;;;5.97;0.85;;;2.30;94.60;;;;;;5020160;28;20719;-72
2021/01/09 09:54:09;;;;;;;5.90;0.90;;;2.40;94.70;;;;;;5020158;28;20503;-72
2021/01/09 09:56:41;;;;;;;3.65;0.77;;;2.40;94.70;;;;;;5019822;28;20130;-72
2021/01/09 09:59:11;;;;;;;10.57;1.10;;;2.40;94.70;;;;;;5018928;28;20056;-72
2021/01/09 10:01:37;;;;;;;5.10;0.70;;;2.40;94.70;;;;;;5020709;28;20076;-72
2021/01/09 10:04:13;;;;;;;4.90;0.85;;;2.40;94.70;;;;;;5020379;28;20049;-72
2021/01/09 10:06:40;;;;;;;;;;;2.50;94.80;;;;;;5020095;28;20037;-72
2021/01/09 10:09:24;;;;;;;10.40;1.50;;;2.50;94.80;;;;;;5018956;28;20059;-72
2021/01/09 10:11:51;;;;;;;5.88;1.30;;;2.50;94.90;;;;;;5020398;28;20491;-72
2021/01/09 10:14:18;;;;;;;8.07;1.45;;;2.50;94.90;;;;;;5023098;28;20072;-72
2021/01/09 10:16:43;;;;;;;2.78;1.00;;;2.50;94.90;;;;;;5022536;28;20083;-72
2021/01/09 10:19:10;;;;;;;4.72;1.00;;;2.50;95.00;;;;;;5019230;28;20037;-72
2021/01/09 10:21:36;;;;;;;7.38;1.48;;;2.60;95.00;;;;;;5016748;28;20380;-72
2021/01/09 10:24:02;;;;;;;6.82;1.10;;;2.60;95.00;;;;;;5019481;28;20743;-73
2021/01/09 10:26:30;;;;;;;9.30;1.50;;;2.60;95.00;;;;;;5020641;28;20037;-73
2021/01/09 10:28:56;;;;;;;4.47;0.90;;;2.70;95.00;;;;;;5020478;28;20484;-73
2021/01/09 10:31:38;;;;;;;6.97;1.13;;;2.70;95.00;;;;;;5021301;28;20068;-73
2021/01/09 10:34:05;;;;;;;6.45;1.60;;;2.80;95.10;;;;;;5020450;28;20034;-73
2021/01/09 10:36:36;;;;;;;5.63;0.98;;;2.80;95.00;;;;;;5017445;28;20117;-73
2021/01/09 10:39:04;;;;;;;3.30;0.73;;;2.90;95.10;;;;;;5020611;28;20435;-73
2021/01/09 10:41:30;;;;;;;6.55;1.23;;;3.00;95.00;;;;;;5021738;28;20080;-73
2021/01/09 10:43:55;;;;;;;9.82;1.02;;;3.00;95.20;;;;;;5020955;28;20061;-73
2021/01/09 10:46:23;;;;;;;4.28;0.88;;;3.10;95.20;;;;;;5022233;28;20464;-73
2021/01/09 10:48:49;;;;;;;5.00;1.05;;;3.20;95.10;;;;;;5020576;28;20108;-73
2021/01/09 10:51:16;;;;;;;4.88;1.08;;;3.30;95.10;;;;;;5017829;28;20437;-73
2021/01/09 10:53:42;;;;;;;3.40;1.00;;;3.40;95.20;;;;;;5016219;28;20072;-73
2021/01/09 10:56:09;;;;;;;8.02;1.48;;;3.60;95.20;;;;;;5016448;28;20046;-73
2021/01/09 10:58:35;;;;;;;5.13;0.73;;;3.70;95.10;;;;;;5019434;28;20514;-72
2021/01/09 11:01:00;;;;;;;4.90;0.60;;;3.80;95.00;;;;;;5017784;28;20038;-73
2021/01/09 11:03:26;;;;;;;10.90;0.70;;;3.90;95.00;;;;;;5016409;28;20041;-73
2021/01/09 11:05:52;;;;;;;4.60;1.02;;;4.00;94.50;;;;;;5016275;28;20087;-73
2021/01/09 11:08:18;;;;;;;5.95;0.60;;;4.20;94.50;;;;;;5016436;28;20337;-73
2021/01/09 11:10:43;;;;;;;6.38;1.08;;;4.30;94.40;;;;;;5017691;28;20071;-73
2021/01/09 11:13:09;;;;;;;4.82;0.68;;;4.50;94.20;;;;;;5018394;28;20060;-73
2021/01/09 11:15:35;;;;;;;3.25;0.55;;;4.50;93.80;;;;;;5019722;28;20518;-73
2021/01/09 11:18:01;;;;;;;4.40;0.68;;;4.50;93.70;;;;;;5016073;28;20514;-74
2021/01/09 11:20:27;;;;;;;4.53;0.65;;;4.50;93.70;;;;;;5017949;28;20026;-74
2021/01/09 11:22:52;;;;;;;13.25;1.48;;;4.50;93.80;;;;;;5021661;28;20083;-73
2021/01/09 11:25:18;;;;;;;4.55;0.90;;;4.60;93.80;;;;;;5023490;28;20033;-73
2021/01/09 11:27:44;;;;;;;2.92;0.57;;;4.60;93.50;;;;;;5014096;28;20037;-73
2021/01/09 11:30:10;;;;;;;3.25;0.50;;;4.60;93.60;;;;;;5017755;28;20114;-73
2021/01/09 11:32:36;;;;;;;6.30;1.02;;;4.70;93.60;;;;;;5019986;28;20495;-73
2021/01/09 11:35:02;;;;;;;7.30;1.10;;;4.80;93.60;;;;;;5020310;28;20087;-74
2021/01/09 11:37:28;;;;;;;2.83;0.50;;;4.80;93.60;;;;;;5020137;28;20380;-74
2021/01/09 11:39:54;;;;;;;5.20;0.65;;;4.80;93.50;;;;;;5021802;28;20045;-74
2021/01/09 11:42:21;;;;;;;5.28;0.60;;;4.90;93.40;;;;;;5024072;28;20106;-73
2021/01/09 11:44:47;;;;;;;4.72;0.60;;;4.90;93.50;;;;;;5021456;28;20041;-74
2021/01/09 11:47:13;;;;;;;3.45;0.70;;;5.10;93.80;;;;;;5021524;28;20033;-74
2021/01/09 11:49:39;;;;;;;2.13;0.38;;;5.20;93.50;;;;;;5020904;28;20061;-74
2021/01/09 11:52:05;;;;;;;1.85;0.30;;;5.30;93.10;;;;;;5022581;28;20045;-74
2021/01/09 11:54:31;;;;;;;2.45;0.70;;;5.30;92.80;;;;;;5023025;28;20049;-74
2021/01/09 11:56:57;;;;;;;4.55;0.55;;;5.30;92.70;;;;;;5040407;28;20111;-74
2021/01/09 11:59:23;;;;;;;2.30;0.88;;;5.50;93.10;;;;;;5020823;28;20495;-74
2021/01/09 12:01:49;;;;;;;4.63;0.38;;;5.70;93.10;;;;;;5023015;28;20034;-74
2021/01/09 12:04:14;;;;;;;20.67;1.15;;;5.90;93.10;;;;;;5022192;28;20522;-74
2021/01/09 12:06:40;;;;;;;14.90;0.90;;;6.20;92.80;;;;;;5024953;28;21220;-74
2021/01/09 12:09:06;;;;;;;4.38;0.50;;;6.30;92.00;;;;;;5022744;28;20046;-74
2021/01/09 12:11:32;;;;;;;2.38;0.50;;;6.30;91.80;;;;;;5026130;28;20083;-74
2021/01/09 12:13:58;;;;;;;4.22;0.40;;;6.30;91.40;;;;;;5022707;28;20120;-74
2021/01/09 12:16:30;;;;;;;1.73;0.30;;;6.20;91.40;;;;;;5022616;28;20048;-74
2021/01/09 12:18:57;;;;;;;4.07;0.45;;;6.20;91.40;;;;;;5022176;28;20111;-74
2021/01/09 12:21:23;;;;;;;2.60;0.75;;;6.20;91.40;;;;;;5023786;28;20132;-74
2021/01/09 12:23:49;;;;;;;2.78;0.50;;;6.20;91.00;;;;;;5021617;28;20677;-74
2021/01/09 12:26:19;;;;;;;3.10;0.40;;;6.30;91.30;;;;;;5020085;28;20034;-74
2021/01/09 12:28:45;;;;;;;4.15;0.45;;;6.40;91.80;;;;;;5014901;28;20038;-74
2021/01/09 12:31:11;;;;;;;1.95;0.20;;;6.50;91.00;;;;;;5020625;28;20033;-74
2021/01/09 12:33:37;;;;;;;3.83;0.20;;;6.40;90.70;;;;;;5021395;28;20056;-74
2021/01/09 12:36:04;;;;;;;4.25;0.32;;;6.40;90.70;;;;;;5021368;28;20050;-74
2021/01/09 12:38:29;;;;;;;4.97;0.50;;;6.30;90.40;;;;;;5020779;28;20029;-74
2021/01/09 12:40:55;;;;;;;2.58;0.60;;;6.20;90.50;;;;;;5022357;28;20036;-74
2021/01/09 12:43:20;;;;;;;2.08;0.30;;;6.20;90.60;;;;;;5020187;28;20033;-74
2021/01/09 12:45:46;;;;;;;6.25;2.17;;;6.10;90.60;;;;;;5020943;28;20104;-74
2021/01/09 12:48:12;;;;;;;4.53;0.50;;;6.00;90.50;;;;;;5018487;28;20050;-74
2021/01/09 12:50:42;;;;;;;6.97;0.60;;;5.90;90.60;;;;;;5020726;28;20037;-74
2021/01/09 12:53:08;;;;;;;3.88;0.50;;;5.90;90.90;;;;;;5019295;28;20073;-74
2021/01/09 12:55:35;;;;;;;5.22;0.50;;;5.80;90.70;;;;;;5020787;28;20144;-74
2021/01/09 12:58:01;;;;;;;5.25;0.50;;;5.90;91.10;;;;;;5016400;28;20117;-73
2021/01/09 13:00:27;;;;;;;6.40;0.95;;;5.80;91.30;;;;;;5017238;28;20038;-74
2021/01/09 13:02:53;;;;;;;5.95;0.60;;;5.80;91.00;;;;;;5017677;28;20033;-74